Time;durP1;ratioP1;P1;durP2;ratioP2;P2;SDS_P1;SDS_P2;PMS_P1;PMS_P2;Temp;Humidity;BMP_temperature;BMP_pressure;BME280_temperature;BME280_humidity;BME280_pressure;Samples;Min_cycle;Max_cycle;Signal;HPM_P1;HPM_P2
2023/04/25 00:01:17;;;;;;;;;;;;;;;22.58;50.91;96201.75;606692;232;68756;-60
2023/04/25 00:03:45;;;;;;;;;;;;;;;22.57;51.03;96189.46;605319;232;66525;-60
2023/04/25 00:06:13;;;;;;;;;;;;;;;22.57;51.02;96186.78;603902;234;65224;-60
2023/04/25 00:08:41;;;;;;;;;;;;;;;22.56;50.16;96185.18;603841;234;68819;-60
2023/04/25 00:11:08;;;;;;;;;;;;;;;22.55;50.67;96180.94;603894;234;68678;-60
2023/04/25 00:13:36;;;;;;;;;;;;;;;22.55;50.44;96175.58;609575;232;65013;-60
2023/04/25 00:16:04;;;;;;;;;;;;;;;22.55;51.26;96170.22;602658;233;73609;-60
2023/04/25 00:18:33;;;;;;;;;;;;;;;22.54;50.16;96164.08;606113;233;68920;-60
2023/04/25 00:21:00;;;;;;;;;;;;;;;22.54;51.30;96156.05;602656;233;62778;-60
2023/04/25 00:23:28;;;;;;;;;;;;;;;22.55;51.76;96159.51;608712;232;66877;-60
2023/04/25 00:25:55;;;;;;;;;;;;;;;22.53;50.51;96153.66;607197;231;66561;-60
2023/04/25 00:28:22;;;;;;;;;;;;;;;22.54;51.43;96141.88;608814;232;62881;-60
2023/04/25 00:30:50;;;;;;;;;;;;;;;22.53;50.20;96148.30;603396;232;69031;-60
2023/04/25 00:33:18;;;;;;;;;;;;;;;22.53;51.19;96140.27;608046;231;68703;-60
2023/04/25 00:35:45;;;;;;;;;;;;;;;22.53;50.63;96134.91;606326;231;65020;-60
2023/04/25 00:38:13;;;;;;;;;;;;;;;22.51;49.32;96137.91;606730;233;66013;-60
2023/04/25 00:40:43;;;;;;;;;;;;;;;22.52;51.49;96136.02;605206;232;66291;-60
2023/04/25 00:43:09;;;;;;;;;;;;;;;22.51;50.74;96132.55;607325;232;62902;-61
2023/04/25 00:45:38;;;;;;;;;;;;;;;22.51;51.35;96132.55;604908;232;68471;-61
2023/04/25 00:48:06;;;;;;;;;;;;;;;22.50;50.61;96130.95;609777;232;66148;-60
2023/04/25 00:50:34;;;;;;;;;;;;;;;22.50;50.88;96128.27;608447;231;62999;-61
2023/04/25 00:53:03;;;;;;;;;;;;;;;22.50;51.08;96122.13;606241;232;68402;-60
2023/04/25 00:55:36;;;;;;;;;;;;;;;22.49;50.15;96115.99;603824;234;66479;-61
2023/04/25 00:58:00;;;;;;;;;;;;;;;22.49;51.68;96120.56;605921;231;65070;-60
2023/04/25 01:00:29;;;;;;;;;;;;;;;22.48;50.60;96114.42;606467;231;68435;-60
2023/04/25 01:02:57;;;;;;;;;;;;;;;22.48;50.86;96117.09;608781;232;68501;-60
2023/04/25 01:05:25;;;;;;;;;;;;;;;22.48;50.33;96108.25;605570;232;64886;-61
2023/04/25 01:07:52;;;;;;;;;;;;;;;22.47;51.21;96107.46;605885;231;68794;-61
2023/04/25 01:10:20;;;;;;;;;;;;;;;22.46;50.68;96095.19;606455;232;68979;-61
2023/04/25 01:12:47;;;;;;;;;;;;;;;22.46;50.95;96094.39;607848;230;64930;-60
2023/04/25 01:15:15;;;;;;;;;;;;;;;22.46;51.51;96094.39;605061;232;69481;-61
2023/04/25 01:17:43;;;;;;;;;;;;;;;22.46;51.57;96086.36;606556;232;68678;-61
2023/04/25 01:20:11;;;;;;;;;;;;;;;22.45;51.22;96087.44;606192;232;62753;-61
2023/04/25 01:22:39;;;;;;;;;;;;;;;22.46;51.28;96081.01;604490;233;68796;-61
2023/04/25 01:25:07;;;;;;;;;;;;;;;22.45;51.48;96080.19;604183;232;68477;-61
2023/04/25 01:27:36;;;;;;;;;;;;;;;22.44;51.60;96078.63;609864;231;65488;-61
2023/04/25 01:30:04;;;;;;;;;;;;;;;22.44;51.34;96072.48;601835;232;68984;-61
2023/04/25 01:32:38;;;;;;;;;;;;;;;22.43;50.76;96076.27;602484;233;68700;-60
2023/04/25 01:35:02;;;;;;;;;;;;;;;22.43;50.84;96073.59;608446;231;64844;-61
2023/04/25 01:37:29;;;;;;;;;;;;;;;22.44;52.14;96080.52;605517;232;66901;-60
2023/04/25 01:39:57;;;;;;;;;;;;;;;22.43;51.76;96070.91;605088;231;69151;-60
2023/04/25 01:42:25;;;;;;;;;;;;;;;22.43;50.76;96073.59;609438;232;64887;-60
2023/04/25 01:44:53;;;;;;;;;;;;;;;22.41;51.04;96068.52;605209;231;68787;-61
2023/04/25 01:47:20;;;;;;;;;;;;;;;22.42;50.53;96075.45;609291;231;66340;-61
2023/04/25 01:49:48;;;;;;;;;;;;;;;22.41;49.69;96075.77;604521;232;65047;-61
2023/04/25 01:52:15;;;;;;;;;;;;;;;22.41;51.50;96065.84;607557;231;68806;-61
2023/04/25 01:54:44;;;;;;;;;;;;;;;22.41;51.41;96073.09;607255;230;67432;-61
2023/04/25 01:57:13;;;;;;;;;;;;;;;22.39;51.83;96071.48;605675;233;65067;-60
2023/04/25 01:59:42;;;;;;;;;;;;;;;22.39;51.31;96063.45;609616;231;69270;-60
2023/04/25 02:02:12;;;;;;;;;;;;;;;22.39;51.63;96065.34;604931;232;48442;-61
2023/04/25 02:04:40;;;;;;;;;;;;;;;22.40;53.93;96061.59;607728;232;65619;-61
2023/04/25 02:07:08;;;;;;;;;;;;;;;22.38;52.22;96059.20;605456;232;69305;-61
2023/04/25 02:09:40;;;;;;;;;;;;;;;22.38;51.46;96059.20;609603;232;45527;-60
2023/04/25 02:12:09;;;;;;;;;;;;;;;22.37;52.03;96054.95;605704;233;65678;-61
2023/04/25 02:14:57;;;;;;;;;;;;;;;22.36;51.73;96048.00;604197;231;51048;-61
2023/04/25 02:17:31;;;;;;;;;;;;;;;22.37;51.42;96051.47;604910;233;49492;-60
2023/04/25 02:19:58;;;;;;;;;;;;;;;22.36;51.34;96042.65;604628;232;62865;-61
2023/04/25 02:22:26;;;;;;;;;;;;;;;22.35;52.91;96035.73;606349;233;66658;-61
2023/04/25 02:24:54;;;;;;;;;;;;;;;22.36;51.84;96037.30;605142;232;68945;-61
2023/04/25 02:27:22;;;;;;;;;;;;;;;22.35;51.74;96038.41;606802;232;65156;-60
2023/04/25 02:29:49;;;;;;;;;;;;;;;22.35;51.33;96045.64;605490;231;68787;-61
2023/04/25 02:32:17;;;;;;;;;;;;;;;22.34;51.81;96036.83;605983;231;68614;-61
2023/04/25 02:34:45;;;;;;;;;;;;;;;22.34;50.03;96036.83;608006;232;65057;-61
2023/04/25 02:37:12;;;;;;;;;;;;;;;22.34;51.74;96038.69;605181;231;68654;-60
2023/04/25 02:39:39;;;;;;;;;;;;;;;22.33;52.25;96027.20;603764;234;68747;-60
2023/04/25 02:42:07;;;;;;;;;;;;;;;22.34;53.13;96030.66;605712;231;65106;-60
2023/04/25 02:44:34;;;;;;;;;;;;;;;22.33;51.32;96031.77;608480;231;69138;-60
2023/04/25 02:47:02;;;;;;;;;;;;;;;22.32;52.16;96028.30;609229;231;68760;-60
2023/04/25 02:49:30;;;;;;;;;;;;;;;22.32;52.49;96027.52;603220;232;64888;-60
2023/04/25 02:51:57;;;;;;;;;;;;;;;22.32;49.87;96030.98;604912;232;66897;-61
2023/04/25 02:54:25;;;;;;;;;;;;;;;22.31;51.37;96034.73;608363;232;68694;-60
2023/04/25 02:56:52;;;;;;;;;;;;;;;22.32;52.03;96025.62;605365;231;65035;-60
2023/04/25 02:59:21;;;;;;;;;;;;;;;22.30;51.61;96019.00;607347;232;46613;-60
2023/04/25 03:01:49;;;;;;;;;;;;;;;22.30;51.20;96010.97;602172;232;68691;-60
2023/04/25 03:04:19;;;;;;;;;;;;;;;22.29;51.75;96017.39;607498;233;65193;-61
2023/04/25 03:06:46;;;;;;;;;;;;;;;22.30;52.01;96010.97;603994;233;69790;-61
2023/04/25 03:09:14;;;;;;;;;;;;;;;22.28;52.53;96003.22;603851;232;68871;-61
2023/04/25 03:11:41;;;;;;;;;;;;;;;22.27;51.44;96007.00;609374;232;65033;-60
2023/04/25 03:14:09;;;;;;;;;;;;;;;22.27;51.31;96015.03;601438;232;68782;-60
2023/04/25 03:16:36;;;;;;;;;;;;;;;22.27;53.04;96015.03;607157;232;66676;-60
2023/04/25 03:19:04;;;;;;;;;;;;;;;22.27;52.98;96009.69;603830;233;63037;-61
2023/04/25 03:21:34;;;;;;;;;;;;;;;22.27;51.92;96009.69;609304;231;68712;-61
2023/04/25 03:24:02;;;;;;;;;;;;;;;22.26;51.92;96018.81;606818;231;68716;-61
2023/04/25 03:26:30;;;;;;;;;;;;;;;22.26;50.09;96013.47;599793;234;66788;-61
2023/04/25 03:28:58;;;;;;;;;;;;;;;22.25;52.20;96006.51;602361;234;68730;-61
2023/04/25 03:31:25;;;;;;;;;;;;;;;22.28;53.14;96007.80;601284;233;69190;-61
2023/04/25 03:33:53;;;;;;;;;;;;;;;22.25;52.83;96003.84;607709;232;62953;-61
2023/04/25 03:36:21;;;;;;;;;;;;;;;22.25;52.75;96005.73;605501;231;69116;-61
2023/04/25 03:38:49;;;;;;;;;;;;;;;22.24;53.75;96002.27;605434;233;69580;-60
2023/04/25 03:41:17;;;;;;;;;;;;;;;22.25;51.98;96005.73;604931;233;65695;-61
2023/04/25 03:43:46;;;;;;;;;;;;;;;22.23;52.27;96008.69;603743;232;46988;-61
2023/04/25 03:46:14;;;;;;;;;;;;;;;22.22;51.49;96004.45;604814;233;69441;-60
2023/04/25 03:48:42;;;;;;;;;;;;;;;22.23;54.64;96010.58;606620;232;63670;-61
2023/04/25 03:51:11;;;;;;;;;;;;;;;22.22;51.84;96007.13;605086;231;68702;-60
2023/04/25 03:53:40;;;;;;;;;;;;;;;22.24;52.64;96004.16;609434;231;45800;-60
2023/04/25 03:56:22;;;;;;;;;;;;;;;22.21;52.62;95994.84;603243;232;47410;-60
2023/04/25 03:58:51;;;;;;;;;;;;;;;22.21;52.02;96004.73;605262;232;47236;-61
2023/04/25 04:01:20;;;;;;;;;;;;;;;22.21;52.66;96000.20;599027;234;69844;-61
2023/04/25 04:03:48;;;;;;;;;;;;;;;22.21;52.62;96002.88;609146;232;65875;-60
2023/04/25 04:06:17;;;;;;;;;;;;;;;22.21;52.99;96000.20;604872;232;66998;-61
2023/04/25 04:08:46;;;;;;;;;;;;;;;22.19;51.42;96005.05;606216;231;47230;-61
2023/04/25 04:11:14;;;;;;;;;;;;;;;22.20;54.75;95998.59;608114;232;65119;-60
2023/04/25 04:13:42;;;;;;;;;;;;;;;22.19;52.42;95997.03;604241;232;69618;-61
2023/04/25 04:16:10;;;;;;;;;;;;;;;22.20;52.25;95992.45;604133;234;69348;-61
2023/04/25 04:18:38;;;;;;;;;;;;;;;22.19;53.01;95997.03;604232;234;63010;-61
2023/04/25 04:21:05;;;;;;;;;;;;;;;22.19;52.97;95996.24;602928;234;68827;-60
2023/04/25 04:23:35;;;;;;;;;;;;;;;22.18;51.62;95998.13;596650;235;47275;-61
2023/04/25 04:26:02;;;;;;;;;;;;;;;22.17;51.24;96002.64;597903;234;63814;-60
2023/04/25 04:28:32;;;;;;;;;;;;;;;22.18;52.39;96003.48;602264;235;49992;-60
2023/04/25 04:31:04;;;;;;;;;;;;;;;22.17;52.57;96005.31;597230;235;45923;-61
2023/04/25 04:33:32;;;;;;;;;;;;;;;22.19;51.88;95999.70;595646;235;63045;-60
2023/04/25 04:36:02;;;;;;;;;;;;;;;22.17;51.07;96005.31;597102;235;47401;-60
2023/04/25 04:38:30;;;;;;;;;;;;;;;22.17;51.85;95999.96;597675;235;68709;-60
2023/04/25 04:41:00;;;;;;;;;;;;;;;22.18;52.62;96014.19;595205;236;42471;-60
2023/04/25 04:43:36;;;;;;;;;;;;;;;22.20;53.44;96014.66;595483;235;49235;-60
2023/04/25 04:46:06;;;;;;;;;;;;;;;22.19;51.43;96012.30;600882;235;49066;-60
2023/04/25 04:48:41;;;;;;;;;;;;;;;22.19;51.93;96015.76;596077;235;46640;-61
2023/04/25 04:51:16;;;;;;;;;;;;;;;22.19;51.07;96021.11;599754;235;45683;-60
2023/04/25 04:54:03;;;;;;;;;;;;;;;22.19;53.80;96023.78;599349;235;43451;-60
2023/04/25 04:56:41;;;;;;;;;;;;;;;22.19;50.86;96015.76;599419;235;47209;-60
2023/04/25 04:59:11;;;;;;;;;;;;;;;22.20;51.80;96024.57;595548;235;49450;-61
2023/04/25 05:01:41;;;;;;;;;;;;;;;22.19;50.73;96017.65;597850;235;49644;-60
2023/04/25 05:04:16;;;;;;;;;;;;;;;22.19;51.93;96018.44;597086;235;46282;-60
2023/04/25 05:06:48;;;;;;;;;;;;;;;22.20;52.03;96024.57;600976;235;47171;-60
2023/04/25 05:09:19;;;;;;;;;;;;;;;22.20;50.53;96017.33;601664;235;44926;-61
2023/04/25 05:11:51;;;;;;;;;;;;;;;22.20;51.97;96011.19;596721;235;44875;-60
2023/04/25 05:14:23;;;;;;;;;;;;;;;22.20;51.47;96011.98;599211;235;47018;-61
2023/04/25 05:17:08;;;;;;;;;;;;;;;22.21;52.26;96010.91;596353;236;48454;-60
2023/04/25 05:19:42;;;;;;;;;;;;;;;22.21;51.45;96018.93;599101;235;46301;-60
2023/04/25 05:22:21;;;;;;;;;;;;;;;22.21;50.60;96016.25;600028;234;51127;-60
2023/04/25 05:24:55;;;;;;;;;;;;;;;22.23;51.18;96013.26;597923;235;45963;-60
2023/04/25 05:27:27;;;;;;;;;;;;;;;22.23;51.24;96014.05;600558;235;42384;-60
2023/04/25 05:29:57;;;;;;;;;;;;;;;22.22;51.40;96001.77;594867;235;48316;-60
2023/04/25 05:32:26;;;;;;;;;;;;;;;22.22;51.62;96001.77;601576;235;47200;-60
2023/04/25 05:34:53;;;;;;;;;;;;;;;22.24;50.68;96015.64;599703;236;63567;-60
2023/04/25 05:37:23;;;;;;;;;;;;;;;22.25;51.74;96006.51;600457;235;50976;-60
2023/04/25 05:39:55;;;;;;;;;;;;;;;22.24;50.14;96004.94;595554;235;49645;-60
2023/04/25 05:42:26;;;;;;;;;;;;;;;22.24;51.16;96002.27;596579;235;43834;-60
2023/04/25 05:45:07;;;;;;;;;;;;;;;22.25;50.66;96003.05;595865;236;47264;-60
2023/04/25 05:47:53;;;;;;;;;;;;;;;22.26;52.04;96005.44;594938;235;40401;-59
2023/04/25 05:50:22;;;;;;;;;;;;;;;22.27;50.92;96004.33;599382;235;45367;-62
2023/04/25 05:52:54;;;;;;;;;;;;;;;22.27;46.67;95998.98;596149;235;45548;-59
2023/04/25 05:55:26;;;;;;;;;;;;;;;22.28;48.60;96002.44;600556;235;48465;-61
2023/04/25 05:57:56;;;;;;;;;;;;;;;22.31;49.54;96004.50;595631;235;65952;-59
2023/04/25 06:00:23;;;;;;;;;;;;;;;22.31;50.88;96005.30;596251;235;69302;-59
2023/04/25 06:02:51;;;;;;;;;;;;;;;22.33;49.28;95997.76;598330;235;68417;-60
2023/04/25 06:05:20;;;;;;;;;;;;;;;22.33;51.51;95996.97;597310;236;64878;-61
2023/04/25 06:07:48;;;;;;;;;;;;;;;22.33;51.34;95997.76;602723;232;69484;-61
2023/04/25 06:10:15;;;;;;;;;;;;;;;22.33;48.01;95996.97;615109;229;66814;-61
2023/04/25 06:12:43;;;;;;;;;;;;;;;22.35;50.70;95992.11;610964;230;65100;-60
2023/04/25 06:15:11;;;;;;;;;;;;;;;22.36;50.80;95991.01;614320;230;66198;-61
2023/04/25 06:17:38;;;;;;;;;;;;;;;22.37;52.44;95995.25;614440;230;68653;-61
2023/04/25 06:20:07;;;;;;;;;;;;;;;22.38;52.11;95991.50;613836;230;62904;-61
2023/04/25 06:22:35;;;;;;;;;;;;;;;22.39;52.41;95988.50;615569;230;66773;-62
2023/04/25 06:25:04;;;;;;;;;;;;;;;22.41;51.17;95979.39;613903;230;68573;-61
2023/04/25 06:27:33;;;;;;;;;;;;;;;22.43;51.43;95983.35;613136;231;62932;-62
2023/04/25 06:30:02;;;;;;;;;;;;;;;22.44;46.80;95992.95;611345;231;69031;-61
2023/04/25 06:32:30;;;;;;;;;;;;;;;22.48;51.97;95987.77;605511;232;67278;-62
2023/04/25 06:34:58;;;;;;;;;;;;;;;22.48;50.97;95988.59;611526;231;65820;-62
2023/04/25 06:37:26;;;;;;;;;;;;;;;22.49;53.13;95984.80;611608;232;69003;-63
2023/04/25 06:39:54;;;;;;;;;;;;;;;22.55;47.03;95982.78;611171;231;66131;-61
2023/04/25 06:42:22;;;;;;;;;;;;;;;22.60;47.06;95986.13;611831;231;64933;-61
2023/04/25 06:45:00;;;;;;;;;;;;;;;22.61;46.92;95987.70;611410;232;69339;-61
2023/04/25 06:47:29;;;;;;;;;;;;;;;22.61;48.72;95987.70;611228;231;69038;-62
2023/04/25 06:49:57;;;;;;;;;;;;;;;22.61;50.14;95987.70;613455;230;64875;-62
2023/04/25 06:52:25;;;;;;;;;;;;;;;22.61;51.33;95985.02;613513;229;68576;-62
2023/04/25 06:54:52;;;;;;;;;;;;;;;22.62;50.78;95988.52;612769;231;66588;-62
2023/04/25 06:57:22;;;;;;;;;;;;;;;22.61;51.57;95979.67;611571;231;42197;-62
2023/04/25 06:59:51;;;;;;;;;;;;;;;22.62;53.73;95983.16;611521;231;66378;-61
2023/04/25 07:02:20;;;;;;;;;;;;;;;22.62;52.33;95983.16;611212;232;69468;-62
2023/04/25 07:04:49;;;;;;;;;;;;;;;22.63;52.50;95978.59;611390;230;63082;-61
2023/04/25 07:07:18;;;;;;;;;;;;;;;22.65;51.71;95981.76;611503;230;69088;-62
2023/04/25 07:09:47;;;;;;;;;;;;;;;22.66;51.41;95978.75;611577;231;47062;-61
2023/04/25 07:12:15;;;;;;;;;;;;;;;22.69;50.91;95974.67;611355;231;65876;-61
2023/04/25 07:14:43;;;;;;;;;;;;;;;22.70;52.40;95973.56;611646;231;68668;-61
2023/04/25 07:17:11;;;;;;;;;;;;;;;22.71;50.83;95972.48;613011;230;66327;-62
2023/04/25 07:19:40;;;;;;;;;;;;;;;22.73;50.23;95978.34;611938;231;65658;-61
2023/04/25 07:22:07;;;;;;;;;;;;;;;22.74;50.25;95974.55;611222;230;65975;-61
2023/04/25 07:24:36;;;;;;;;;;;;;;;22.76;49.66;95983.08;612168;230;69442;-61
2023/04/25 07:27:04;;;;;;;;;;;;;;;22.76;51.30;95978.50;613512;231;65064;-61
2023/04/25 07:29:36;;;;;;;;;;;;;;;22.76;49.16;95973.15;612977;230;48583;-61
2023/04/25 07:32:03;;;;;;;;;;;;;;;22.79;50.11;95977.89;610333;229;66653;-61
2023/04/25 07:34:31;;;;;;;;;;;;;;;22.79;49.31;95977.89;612808;231;64905;-61
2023/04/25 07:36:59;;;;;;;;;;;;;;;22.81;49.63;95985.63;611811;230;68782;-61
2023/04/25 07:39:27;;;;;;;;;;;;;;;22.83;52.17;95983.41;612121;229;66783;-61
2023/04/25 07:41:56;;;;;;;;;;;;;;;22.83;49.62;95981.55;611415;231;66204;-60
2023/04/25 07:44:25;;;;;;;;;;;;;;;22.83;51.76;95978.87;612020;230;45385;-60
2023/04/25 07:46:53;;;;;;;;;;;;;;;22.87;51.56;95986.28;614028;229;68842;-60
2023/04/25 07:49:21;;;;;;;;;;;;;;;22.86;51.29;95982.80;611929;231;65767;-60
2023/04/25 07:51:49;;;;;;;;;;;;;;;22.88;50.04;95982.50;611429;230;67585;-60
2023/04/25 07:54:18;;;;;;;;;;;;;;;22.89;49.53;95984.88;611797;230;66184;-60
2023/04/25 07:56:47;;;;;;;;;;;;;;;22.89;50.49;95987.56;613725;230;43723;-60
2023/04/25 07:59:15;;;;;;;;;;;;;;;22.90;51.70;95991.03;613426;229;68673;-60
2023/04/25 08:01:43;;;;;;;;;;;;;;;22.92;51.09;95999.55;611682;230;66175;-60
2023/04/25 08:04:11;;;;;;;;;;;;;;;22.92;50.93;96004.91;611360;231;66267;-60
2023/04/25 08:06:41;;;;;;;;;;;;;;;22.93;51.74;96009.95;611028;230;48476;-61
2023/04/25 08:09:10;;;;;;;;;;;;;;;22.94;50.78;96027.59;613355;230;46877;-61
2023/04/25 08:11:39;;;;;;;;;;;;;;;22.95;51.89;96015.02;614085;229;48646;-60
2023/04/25 08:14:08;;;;;;;;;;;;;;;22.94;50.10;96016.09;611301;231;66678;-60
2023/04/25 08:16:37;;;;;;;;;;;;;;;22.95;49.79;96009.66;611344;230;69283;-60
2023/04/25 08:19:05;;;;;;;;;;;;;;;22.96;49.79;96013.94;611230;232;62485;-60
2023/04/25 08:21:33;;;;;;;;;;;;;;;22.98;51.85;96022.45;610781;229;70003;-60
2023/04/25 08:24:02;;;;;;;;;;;;;;;22.97;50.20;96031.58;615058;227;45886;-60
2023/04/25 08:26:32;;;;;;;;;;;;;;;22.99;49.86;96032.85;612013;230;43848;-60
2023/04/25 08:29:00;;;;;;;;;;;;;;;23.00;50.02;96026.41;609193;230;67857;-60
2023/04/25 08:31:28;;;;;;;;;;;;;;;23.01;49.40;96027.20;612928;230;68893;-60
2023/04/25 08:33:57;;;;;;;;;;;;;;;23.01;49.35;96022.63;613435;229;42695;-60
2023/04/25 08:36:29;;;;;;;;;;;;;;;23.03;48.32;96027.69;611710;230;47311;-59
2023/04/25 08:38:57;;;;;;;;;;;;;;;23.05;48.42;96028.16;611800;232;69026;-60
2023/04/25 08:41:25;;;;;;;;;;;;;;;23.06;48.86;96028.97;611798;230;63000;-60
2023/04/25 08:43:54;;;;;;;;;;;;;;;23.06;48.19;96029.75;611117;231;68629;-62
2023/04/25 08:46:22;;;;;;;;;;;;;;;23.08;47.93;96032.92;612927;229;67444;-60
2023/04/25 08:48:55;;;;;;;;;;;;;;;23.09;48.12;96031.81;611100;232;46293;-61
2023/04/25 08:51:30;;;;;;;;;;;;;;;23.12;48.00;96033.88;612123;230;68640;-60
2023/04/25 08:53:53;;;;;;;;;;;;;;;23.16;50.57;96034.85;611298;230;68380;-60
2023/04/25 08:56:23;;;;;;;;;;;;;;;23.19;48.49;96036.09;611661;232;62914;-59
2023/04/25 08:58:50;;;;;;;;;;;;;;;23.21;49.38;96041.95;611353;230;68354;-59
2023/04/25 09:01:18;;;;;;;;;;;;;;;23.22;49.85;96041.66;614556;230;69176;-59
2023/04/25 09:03:48;;;;;;;;;;;;;;;23.25;48.65;96037.56;612651;229;42371;-59
2023/04/25 09:06:17;;;;;;;;;;;;;;;23.27;50.41;96032.66;611022;231;68811;-60
2023/04/25 09:08:45;;;;;;;;;;;;;;;23.28;49.66;96026.22;611252;230;68246;-63
2023/04/25 09:11:14;;;;;;;;;;;;;;;23.29;47.17;96029.69;611197;232;65067;-60
2023/04/25 09:13:42;;;;;;;;;;;;;;;23.31;46.64;96030.17;611339;231;67200;-59
2023/04/25 09:16:17;;;;;;;;;;;;;;;23.30;47.29;96018.67;610603;229;47025;-60
2023/04/25 09:18:54;;;;;;;;;;;;;;;23.30;48.19;96015.98;596297;235;46541;-59
2023/04/25 09:21:23;;;;;;;;;;;;;;;23.31;48.83;96016.77;612896;230;68757;-59
2023/04/25 09:23:52;;;;;;;;;;;;;;;23.30;49.13;96012.49;611656;230;68774;-60
2023/04/25 09:26:21;;;;;;;;;;;;;;;23.30;48.75;96005.27;611370;230;63015;-59
2023/04/25 09:28:49;;;;;;;;;;;;;;;23.30;48.13;95997.22;608996;229;69647;-59
2023/04/25 09:31:24;;;;;;;;;;;;;;;23.32;47.91;96002.27;613462;229;45624;-60
2023/04/25 09:33:54;;;;;;;;;;;;;;;23.32;47.85;95999.58;611591;230;64900;-60
2023/04/25 09:36:23;;;;;;;;;;;;;;;23.34;50.75;95997.39;611642;231;66124;-60
2023/04/25 09:39:03;;;;;;;;;;;;;;;23.34;50.15;95990.13;610628;232;48424;-60
2023/04/25 09:41:32;;;;;;;;;;;;;;;23.34;49.99;95986.66;615036;229;46562;-59
2023/04/25 09:44:02;;;;;;;;;;;;;;;23.34;51.12;95976.72;613978;229;69157;-60
2023/04/25 09:46:38;;;;;;;;;;;;;;;23.36;48.28;95976.42;612092;230;47150;-59
2023/04/25 09:49:08;;;;;;;;;;;;;;;23.37;49.30;95972.63;613768;229;46018;-59
2023/04/25 09:52:00;;;;;;;;;;;;;;;23.38;48.75;95972.33;611932;230;42313;-58
2023/04/25 09:54:29;;;;;;;;;;;;;;;23.37;47.84;95968.05;611472;231;49866;-59
2023/04/25 09:57:07;;;;;;;;;;;;;;;23.38;48.28;95966.16;611304;231;44755;-59
2023/04/25 09:59:36;;;;;;;;;;;;;;;23.38;48.13;95963.48;615083;230;68726;-60
2023/04/25 10:02:04;;;;;;;;;;;;;;;23.40;48.00;95958.60;611653;230;69126;-59
2023/04/25 10:04:34;;;;;;;;;;;;;;;23.39;46.80;95957.03;611682;230;65654;-59
2023/04/25 10:07:07;;;;;;;;;;;;;;;23.39;47.82;95957.81;611832;230;48463;-59
2023/04/25 10:09:39;;;;;;;;;;;;;;;23.40;47.68;95953.23;611355;232;66133;-59
2023/04/25 10:12:08;;;;;;;;;;;;;;;23.40;50.41;95950.56;612160;229;64859;-62
2023/04/25 10:14:36;;;;;;;;;;;;;;;23.40;49.15;95940.62;611772;232;66398;-60
2023/04/25 10:17:03;;;;;;;;;;;;;;;23.41;49.58;95934.17;614107;230;68753;-60
2023/04/25 10:19:31;;;;;;;;;;;;;;;23.41;49.91;95928.02;612836;230;65058;-60
2023/04/25 10:22:12;;;;;;;;;;;;;;;23.41;46.83;95930.70;611644;230;68986;-59
2023/04/25 10:24:40;;;;;;;;;;;;;;;23.43;48.56;95925.80;611717;230;68733;-59
2023/04/25 10:27:08;;;;;;;;;;;;;;;23.43;50.22;95925.80;611385;232;65031;-60
2023/04/25 10:29:36;;;;;;;;;;;;;;;23.45;46.56;95916.34;614728;230;66415;-60
2023/04/25 10:32:03;;;;;;;;;;;;;;;23.48;49.38;95917.61;615216;229;68665;-60
2023/04/25 10:34:46;;;;;;;;;;;;;;;23.47;50.64;95922.19;611453;230;62942;-59
2023/04/25 10:37:13;;;;;;;;;;;;;;;23.47;47.67;95922.19;612723;229;66646;-59
2023/04/25 10:39:42;;;;;;;;;;;;;;;23.48;48.88;95913.03;612577;230;66699;-60
2023/04/25 10:42:10;;;;;;;;;;;;;;;23.49;49.99;95908.48;615976;230;65090;-60
2023/04/25 10:44:39;;;;;;;;;;;;;;;23.51;50.84;95913.52;614164;230;66511;-60
2023/04/25 10:47:07;;;;;;;;;;;;;;;23.51;48.90;95908.15;610597;230;68657;-61
2023/04/25 10:49:39;;;;;;;;;;;;;;;23.51;49.53;95906.25;611753;231;62996;-60
2023/04/25 10:52:13;;;;;;;;;;;;;;;23.52;47.95;95907.85;612864;230;66691;-60
2023/04/25 10:54:42;;;;;;;;;;;;;;;23.55;47.11;95903.75;612488;231;69364;-60
2023/04/25 10:57:11;;;;;;;;;;;;;;;23.56;47.05;95903.42;611307;232;63007;-60
2023/04/25 10:59:40;;;;;;;;;;;;;;;23.58;47.99;95906.59;610609;231;66638;-59
2023/04/25 11:02:09;;;;;;;;;;;;;;;23.58;47.75;95900.44;611284;232;68449;-59
2023/04/25 11:04:38;;;;;;;;;;;;;;;23.59;48.11;95916.20;611123;232;65055;-59
2023/04/25 11:07:07;;;;;;;;;;;;;;;23.59;46.34;95921.56;611133;232;66192;-60
2023/04/25 11:09:35;;;;;;;;;;;;;;;23.63;46.92;95943.98;611274;232;66902;-60
2023/04/25 11:12:02;;;;;;;;;;;;;;;23.62;48.03;95950.44;614201;229;65225;-60
2023/04/25 11:14:30;;;;;;;;;;;;;;;23.65;47.47;95943.66;612605;230;67442;-60
2023/04/25 11:16:58;;;;;;;;;;;;;;;23.67;47.76;95952.19;613931;230;67267;-60
2023/04/25 11:19:26;;;;;;;;;;;;;;;23.69;47.76;95964.19;614400;230;63111;-61
2023/04/25 11:21:57;;;;;;;;;;;;;;;23.72;48.25;95968.16;611560;230;66696;-60
2023/04/25 11:24:31;;;;;;;;;;;;;;;23.73;48.07;95983.14;611377;230;68784;-60
2023/04/25 11:26:59;;;;;;;;;;;;;;;23.75;46.08;95972.90;611206;231;62958;-60
2023/04/25 11:29:30;;;;;;;;;;;;;;;23.77;46.94;95972.59;615052;230;68541;-60
2023/04/25 11:31:58;;;;;;;;;;;;;;;23.79;47.26;95965.00;616480;230;66595;-59
2023/04/25 11:34:26;;;;;;;;;;;;;;;23.80;47.26;95958.55;615293;230;62934;-60
2023/04/25 11:36:54;;;;;;;;;;;;;;;23.82;47.89;95959.03;613264;230;69121;-60
2023/04/25 11:39:22;;;;;;;;;;;;;;;23.83;46.60;95956.02;613270;230;68536;-60
2023/04/25 11:41:50;;;;;;;;;;;;;;;23.85;45.72;95953.82;615027;230;65189;-61
2023/04/25 11:44:18;;;;;;;;;;;;;;;23.88;45.79;95938.98;612245;227;68512;-60
2023/04/25 11:46:46;;;;;;;;;;;;;;;23.88;45.58;95930.94;616242;230;68714;-60
2023/04/25 11:49:15;;;;;;;;;;;;;;;23.90;44.87;95928.73;616173;230;64867;-61
2023/04/25 11:51:43;;;;;;;;;;;;;;;23.91;47.54;95928.41;615997;230;68853;-61
2023/04/25 11:54:11;;;;;;;;;;;;;;;23.92;46.78;95926.50;612619;230;68511;-60
2023/04/25 11:56:40;;;;;;;;;;;;;;;23.95;47.89;95925.09;611203;230;63035;-60
2023/04/25 11:59:08;;;;;;;;;;;;;;;23.96;47.20;95919.42;613233;230;68879;-60
2023/04/25 12:01:36;;;;;;;;;;;;;;;23.96;47.83;95919.42;612056;230;68764;-60
2023/04/25 12:04:15;;;;;;;;;;;;;;;23.98;45.11;95911.84;611079;230;65045;-60
2023/04/25 12:06:43;;;;;;;;;;;;;;;24.01;45.95;95905.84;611243;230;68803;-63
2023/04/25 12:09:13;;;;;;;;;;;;;;;24.02;45.35;95888.62;611832;230;68497;-65
2023/04/25 12:11:48;;;;;;;;;;;;;;;24.05;44.92;95885.30;615193;230;65139;-62
2023/04/25 12:14:28;;;;;;;;;;;;;;;24.08;46.08;95873.14;616070;230;66705;-60
2023/04/25 12:16:57;;;;;;;;;;;;;;;24.09;46.21;95872.84;613635;230;68404;-60
2023/04/25 12:19:25;;;;;;;;;;;;;;;24.10;45.41;95874.41;611344;231;65280;-60
2023/04/25 12:21:53;;;;;;;;;;;;;;;24.13;45.11;95878.34;615564;230;68824;-61
2023/04/25 12:24:25;;;;;;;;;;;;;;;24.14;46.07;95863.81;614833;230;66874;-61
2023/04/25 12:26:54;;;;;;;;;;;;;;;24.16;47.03;95861.60;612374;230;65087;-61
2023/04/25 12:29:23;;;;;;;;;;;;;;;24.15;47.62;95855.45;614345;230;68870;-61
2023/04/25 12:31:51;;;;;;;;;;;;;;;24.18;46.74;95850.56;610420;230;68763;-61
2023/04/25 12:34:22;;;;;;;;;;;;;;;24.19;46.17;95849.44;609071;230;66225;-60
2023/04/25 12:36:50;;;;;;;;;;;;;;;24.20;46.40;95846.45;610509;230;68878;-61
2023/04/25 12:39:22;;;;;;;;;;;;;;;24.22;46.53;95851.48;613666;230;68706;-60
2023/04/25 12:41:50;;;;;;;;;;;;;;;24.23;45.57;95853.08;611600;230;65830;-60
2023/04/25 12:44:17;;;;;;;;;;;;;;;24.24;47.46;95854.64;611056;230;66320;-60
2023/04/25 12:46:45;;;;;;;;;;;;;;;24.24;45.98;95857.33;613290;230;66566;-61
2023/04/25 12:49:12;;;;;;;;;;;;;;;24.25;45.95;95854.30;613142;230;65027;-60
2023/04/25 12:51:41;;;;;;;;;;;;;;;24.26;46.49;95850.53;611320;230;69008;-60
2023/04/25 12:54:09;;;;;;;;;;;;;;;24.27;44.93;95851.31;611417;230;66622;-61
2023/04/25 12:56:37;;;;;;;;;;;;;;;24.28;47.43;95852.88;610929;232;65064;-61
2023/04/25 12:59:04;;;;;;;;;;;;;;;24.28;45.77;95866.30;613906;230;68839;-59